CYPA

Prince Albert Glass Field Airport

Prince Albert, Saskatchewan, Canada
METAR CYPA 190500Z 00000KT 15SM SKC M35/M38 A3046 RMK SLP383
Observed Flight Rules
Jan-19 @ 05:00 UTC (an hour ago) Visual Flight Rules
Visibility Clouds
15 miles
  • Clear skies
Temperatures Readings
Current -35°C / -31°F
Dewpoint -38°C / -36°F
Humidity 74%
Altimeter 30.46" Hg
Pressure 1038.3 hPa
Elevation 428
METAR CYPA 190500Z 00000KT 15SM SKC M35/M38 A3046 RMK SLP383
Observed Flight Rules
Jan-19 @ 05:00 UTC
(an hour ago)
VFR
Clouds
  • Clear skies
Temperature Dewpoint
-35°C / -31°F -38°C / -36°F
Humidity Altimeter Pressure
74% 30.46" Hg 1038.3 hPa